createdAt,value
2022-08-31T00:02:24.142Z,6.03
2022-08-31T00:04:54.571Z,5.77
2022-08-31T00:07:22.896Z,6.63
2022-08-31T00:09:51.271Z,6.30
2022-08-31T00:12:19.475Z,6.67
2022-08-31T00:14:49.037Z,5.67
2022-08-31T00:17:17.517Z,6.07
2022-08-31T00:19:45.468Z,6.57
2022-08-31T00:22:14.809Z,6.20
2022-08-31T00:24:42.835Z,6.03
2022-08-31T00:27:10.872Z,6.33
2022-08-31T00:29:38.852Z,6.30
2022-08-31T00:32:07.142Z,6.43
2022-08-31T00:34:35.217Z,6.30
2022-08-31T00:37:04.409Z,6.97
2022-08-31T00:39:34.940Z,6.83
2022-08-31T00:42:05.557Z,6.77
2022-08-31T00:44:33.764Z,6.27
2022-08-31T00:47:01.869Z,6.67
2022-08-31T00:49:31.946Z,7.20
2022-08-31T00:52:03.596Z,6.40
2022-08-31T00:54:35.091Z,6.80
2022-08-31T00:57:03.518Z,6.33
2022-08-31T00:59:31.604Z,6.47
2022-08-31T01:01:59.880Z,6.13
2022-08-31T01:04:28.172Z,6.80
2022-08-31T01:06:56.208Z,6.33
2022-08-31T01:09:25.273Z,6.80
2022-08-31T01:11:54.873Z,6.40
2022-08-31T01:14:22.959Z,6.33
2022-08-31T01:16:53.136Z,7.37
2022-08-31T01:19:32.626Z,6.37
2022-08-31T01:22:05.339Z,7.37
2022-08-31T01:24:35.319Z,6.73
2022-08-31T01:27:04.859Z,6.70
2022-08-31T01:29:33.363Z,7.93
2022-08-31T01:32:01.931Z,7.90
2022-08-31T01:34:30.095Z,9.07
2022-08-31T01:36:58.292Z,8.47
2022-08-31T01:39:26.392Z,8.63
2022-08-31T01:41:55.948Z,8.63
2022-08-31T01:44:26.464Z,9.63
2022-08-31T01:46:55.411Z,10.90
2022-08-31T01:49:25.091Z,11.40
2022-08-31T01:51:54.649Z,10.73
2022-08-31T01:54:25.050Z,12.47
2022-08-31T01:56:53.263Z,11.57
2022-08-31T01:59:31.568Z,11.40
2022-08-31T02:02:06.455Z,11.40
2022-08-31T02:04:34.828Z,27.80
2022-08-31T02:07:02.891Z,26.37
2022-08-31T02:09:33.698Z,26.10
2022-08-31T02:12:01.731Z,23.63
2022-08-31T02:14:31.237Z,24.33
2022-08-31T02:17:01.730Z,24.03
2022-08-31T02:19:31.846Z,25.47
2022-08-31T02:22:00.410Z,23.63
2022-08-31T02:24:30.062Z,23.43
2022-08-31T02:26:58.199Z,24.73
2022-08-31T02:29:27.377Z,23.00
2022-08-31T02:31:57.005Z,25.17
2022-08-31T02:34:25.897Z,23.87
2022-08-31T02:36:53.912Z,25.53
2022-08-31T02:39:22.220Z,23.93
2022-08-31T02:41:50.262Z,21.37
2022-08-31T02:44:18.374Z,19.53
2022-08-31T02:46:48.576Z,17.70
2022-08-31T02:49:32.906Z,17.50
2022-08-31T02:52:01.519Z,17.57
2022-08-31T02:54:29.586Z,17.10
2022-08-31T02:56:57.707Z,16.37
2022-08-31T02:59:25.788Z,16.43
2022-08-31T03:01:54.227Z,15.07
2022-08-31T03:04:22.513Z,14.50
2022-08-31T03:06:51.941Z,15.80
2022-08-31T03:09:20.024Z,14.70
2022-08-31T03:11:48.076Z,14.40
2022-08-31T03:14:16.249Z,13.90
2022-08-31T03:16:44.274Z,14.07
2022-08-31T03:19:12.437Z,14.33
2022-08-31T03:21:40.571Z,14.70
2022-08-31T03:24:10.423Z,14.67
2022-08-31T03:26:39.015Z,15.17
2022-08-31T03:29:07.361Z,13.70
2022-08-31T03:32:05.064Z,14.13
2022-08-31T03:34:34.495Z,13.20
2022-08-31T03:37:02.730Z,14.30
2022-08-31T03:39:32.427Z,14.70
2022-08-31T03:42:01.629Z,13.60
2022-08-31T03:44:30.019Z,14.47
2022-08-31T03:46:58.159Z,15.13
2022-08-31T03:49:27.760Z,14.47
2022-08-31T03:52:14.311Z,14.63
2022-08-31T03:54:54.183Z,14.53
2022-08-31T03:57:22.403Z,13.17
2022-08-31T03:59:54.050Z,11.40
2022-08-31T04:02:22.629Z,12.17
2022-08-31T04:05:25.818Z,11.50
2022-08-31T04:08:12.513Z,12.50
2022-08-31T04:10:49.677Z,11.33
2022-08-31T04:13:36.728Z,12.13
2022-08-31T04:16:28.151Z,11.53
2022-08-31T04:18:56.229Z,12.70
2022-08-31T04:21:26.845Z,13.23
2022-08-31T04:23:55.721Z,13.17
2022-08-31T04:26:27.447Z,12.63
2022-08-31T04:28:56.340Z,14.80
2022-08-31T04:31:26.528Z,13.27
2022-08-31T04:33:56.404Z,12.90
2022-08-31T04:36:26.120Z,12.97
2022-08-31T04:38:58.653Z,13.23
2022-08-31T04:41:29.495Z,13.43
2022-08-31T04:43:59.461Z,13.40
2022-08-31T04:46:28.321Z,12.23
2022-08-31T04:48:56.696Z,13.53
2022-08-31T04:51:26.696Z,13.63
2022-08-31T04:53:55.273Z,13.00
2022-08-31T04:56:25.155Z,13.03
2022-08-31T04:58:56.571Z,12.83
2022-08-31T05:01:28.172Z,12.70
2022-08-31T05:04:18.428Z,13.13
2022-08-31T05:06:48.103Z,13.60
2022-08-31T05:09:19.501Z,13.40
2022-08-31T05:11:50.005Z,13.30
2022-08-31T05:14:19.648Z,12.97
2022-08-31T05:16:53.396Z,13.30
2022-08-31T05:19:23.498Z,13.90
2022-08-31T05:21:51.544Z,13.47
2022-08-31T05:24:23.128Z,13.17
2022-08-31T05:26:55.947Z,13.10
2022-08-31T05:29:26.375Z,13.37
2022-08-31T05:32:14.170Z,13.43
2022-08-31T05:34:42.367Z,13.30
2022-08-31T05:37:10.385Z,14.10
2022-08-31T05:39:38.818Z,13.03
2022-08-31T05:42:07.553Z,15.40
2022-08-31T05:44:37.653Z,15.30
2022-08-31T05:47:07.907Z,15.90
2022-08-31T05:49:36.313Z,15.97
2022-08-31T05:52:06.303Z,15.67
2022-08-31T05:54:35.641Z,16.20
2022-08-31T05:57:04.411Z,15.80
2022-08-31T05:59:32.632Z,16.30
2022-08-31T06:02:04.324Z,16.90
2022-08-31T06:04:35.533Z,15.73
2022-08-31T06:07:03.657Z,16.33
2022-08-31T06:09:38.999Z,15.33
2022-08-31T06:12:10.732Z,16.17
2022-08-31T06:14:44.769Z,16.63
2022-08-31T06:17:16.221Z,15.50
2022-08-31T06:19:44.394Z,16.27
2022-08-31T06:22:12.985Z,15.83
2022-08-31T06:24:41.205Z,18.13
2022-08-31T06:27:10.217Z,16.93
2022-08-31T06:29:38.771Z,17.90
2022-08-31T06:32:11.001Z,18.30
2022-08-31T06:34:44.233Z,17.30
2022-08-31T06:37:19.402Z,18.33
2022-08-31T06:40:02.957Z,16.87
2022-08-31T06:42:38.571Z,18.67
2022-08-31T06:45:13.163Z,19.80
2022-08-31T06:48:05.011Z,19.73
2022-08-31T06:50:34.543Z,21.00
2022-08-31T06:53:02.608Z,25.63
2022-08-31T06:55:49.050Z,23.13
2022-08-31T06:58:36.093Z,20.93
2022-08-31T07:01:35.282Z,19.70
2022-08-31T07:04:20.722Z,22.07
2022-08-31T07:06:50.501Z,23.23
2022-08-31T07:09:18.969Z,22.83
2022-08-31T07:11:49.007Z,25.00
2022-08-31T07:14:18.889Z,23.10
2022-08-31T07:16:47.377Z,24.63
2022-08-31T07:19:16.296Z,23.70
2022-08-31T07:21:46.876Z,25.80
2022-08-31T07:24:19.124Z,26.10
2022-08-31T07:26:49.041Z,27.13
2022-08-31T07:29:23.379Z,22.33
2022-08-31T07:31:52.106Z,24.23
2022-08-31T07:34:25.867Z,23.57
2022-08-31T07:37:32.718Z,23.73
2022-08-31T07:40:20.246Z,22.67
2022-08-31T07:42:48.378Z,23.93
2022-08-31T07:45:22.664Z,21.77
2022-08-31T07:47:53.956Z,22.77
2022-08-31T07:50:26.808Z,21.87
2022-08-31T07:53:15.231Z,23.57
2022-08-31T07:55:55.502Z,23.97
2022-08-31T07:58:35.082Z,23.07
2022-08-31T08:01:04.190Z,25.37
2022-08-31T08:03:32.180Z,23.03
2022-08-31T08:06:19.698Z,21.13
2022-08-31T08:09:24.550Z,21.30
2022-08-31T08:12:22.447Z,22.20
2022-08-31T08:15:10.864Z,22.93
2022-08-31T08:17:58.176Z,22.57
2022-08-31T08:20:37.345Z,25.07
2022-08-31T08:23:10.866Z,24.97
2022-08-31T08:26:14.013Z,24.97
2022-08-31T08:29:05.539Z,27.47
2022-08-31T08:31:35.604Z,29.17
2022-08-31T08:34:03.831Z,32.70
2022-08-31T08:36:35.785Z,29.77
2022-08-31T08:39:05.948Z,33.53
2022-08-31T08:41:35.932Z,29.90
2022-08-31T08:44:09.117Z,31.40
2022-08-31T08:46:41.620Z,30.20
2022-08-31T08:49:19.242Z,32.83
2022-08-31T08:51:52.893Z,35.13
2022-08-31T08:54:31.847Z,31.73
2022-08-31T08:57:01.661Z,33.53
2022-08-31T08:59:31.500Z,33.33
2022-08-31T09:02:07.015Z,34.43
2022-08-31T09:04:50.970Z,31.77
2022-08-31T09:08:10.226Z,33.43
2022-08-31T09:10:43.067Z,33.70
2022-08-31T09:13:19.756Z,36.50
2022-08-31T09:16:02.161Z,40.70
2022-08-31T09:18:44.766Z,42.33
2022-08-31T09:21:22.268Z,49.10
2022-08-31T09:24:01.464Z,62.30
2022-08-31T09:26:35.686Z,65.03
2022-08-31T09:29:14.060Z,66.23
2022-08-31T09:31:46.475Z,67.43
2022-08-31T09:34:28.488Z,76.67
2022-08-31T09:37:16.255Z,70.60
2022-08-31T09:39:47.665Z,65.27
2022-08-31T09:42:31.165Z,71.37
2022-08-31T09:45:02.354Z,74.97
2022-08-31T09:47:48.291Z,78.87
2022-08-31T09:50:36.692Z,73.47
2022-08-31T09:53:29.567Z,76.50
2022-08-31T09:56:19.840Z,80.57
2022-08-31T09:58:50.762Z,71.00
2022-08-31T10:01:27.150Z,79.50
2022-08-31T10:04:17.082Z,72.67
2022-08-31T10:06:49.750Z,75.23
2022-08-31T10:09:28.004Z,86.87
2022-08-31T10:11:59.917Z,77.80
2022-08-31T10:14:36.181Z,77.87
2022-08-31T10:17:10.917Z,75.47
2022-08-31T10:19:54.393Z,71.60
2022-08-31T10:22:28.242Z,72.90
2022-08-31T10:25:12.730Z,73.10
2022-08-31T10:27:44.976Z,73.63
2022-08-31T10:30:21.527Z,74.37
2022-08-31T10:32:54.912Z,75.17
2022-08-31T10:35:28.335Z,73.27
2022-08-31T10:38:08.271Z,73.00
2022-08-31T10:40:43.773Z,69.20
2022-08-31T10:43:17.660Z,69.77
2022-08-31T10:45:49.031Z,62.97
2022-08-31T10:48:18.227Z,67.60
2022-08-31T10:50:53.578Z,64.57
2022-08-31T10:53:40.276Z,60.77
2022-08-31T10:56:14.882Z,63.50
2022-08-31T10:58:58.437Z,64.03
2022-08-31T11:01:30.386Z,67.00
2022-08-31T11:04:23.174Z,58.20
2022-08-31T11:06:57.587Z,55.93
2022-08-31T11:09:27.558Z,57.60
2022-08-31T11:12:07.030Z,55.17
2022-08-31T11:14:58.460Z,53.17
2022-08-31T11:17:34.712Z,58.70
2022-08-31T11:20:26.747Z,61.43
2022-08-31T11:23:07.990Z,66.33
2022-08-31T11:26:02.987Z,57.73
2022-08-31T11:28:34.130Z,62.17
2022-08-31T11:31:03.860Z,65.47
2022-08-31T11:33:32.047Z,78.00
2022-08-31T11:36:07.210Z,68.93
2022-08-31T11:39:26.784Z,68.17
2022-08-31T11:41:55.361Z,66.07
2022-08-31T11:44:47.317Z,74.70
2022-08-31T11:47:35.560Z,65.83
2022-08-31T11:50:06.073Z,63.70
2022-08-31T11:52:48.075Z,68.33
2022-08-31T11:55:22.467Z,64.80
2022-08-31T11:58:11.501Z,63.33
2022-08-31T12:00:46.388Z,61.30
2022-08-31T12:03:50.495Z,63.73
2022-08-31T12:07:07.506Z,61.77
2022-08-31T12:10:09.368Z,59.53
2022-08-31T12:13:09.398Z,61.63
2022-08-31T12:15:49.739Z,59.33
2022-08-31T12:18:30.897Z,64.80
2022-08-31T12:21:20.916Z,64.00
2022-08-31T12:23:58.681Z,61.17
2022-08-31T12:26:44.873Z,69.07
2022-08-31T12:29:27.428Z,83.97
2022-08-31T12:32:08.730Z,86.60
2022-08-31T12:34:40.660Z,92.70
2022-08-31T12:37:26.456Z,87.67
2022-08-31T12:40:14.344Z,84.07
2022-08-31T12:42:48.538Z,85.53
2022-08-31T12:45:16.981Z,90.87
2022-08-31T12:47:53.138Z,94.07
2022-08-31T12:50:27.864Z,89.17
2022-08-31T12:53:23.550Z,87.67
2022-08-31T12:55:55.525Z,84.00
2022-08-31T12:58:51.014Z,82.40
2022-08-31T13:01:22.515Z,85.63
2022-08-31T13:03:55.209Z,86.47
2022-08-31T13:06:28.676Z,100.30
2022-08-31T13:08:58.931Z,88.13
2022-08-31T13:11:35.119Z,88.67
2022-08-31T13:14:14.729Z,94.93
2022-08-31T13:16:45.261Z,93.50
2022-08-31T13:19:25.823Z,92.97
2022-08-31T13:21:57.321Z,89.73
2022-08-31T13:24:28.982Z,88.20
2022-08-31T13:27:12.816Z,90.97
2022-08-31T13:29:47.816Z,89.87
2022-08-31T13:32:30.788Z,87.23
2022-08-31T13:35:04.352Z,88.03
2022-08-31T13:37:36.005Z,89.87
2022-08-31T13:40:09.894Z,82.17
2022-08-31T13:42:41.377Z,85.93
2022-08-31T13:45:26.443Z,86.83
2022-08-31T13:47:58.215Z,88.40
2022-08-31T13:50:32.957Z,92.60
2022-08-31T13:53:36.072Z,88.10
2022-08-31T13:55:51.366Z,81.70
2022-08-31T13:58:27.667Z,81.63
2022-08-31T14:01:19.913Z,81.67
2022-08-31T14:03:57.226Z,73.73
2022-08-31T14:06:28.082Z,77.57
2022-08-31T14:09:00.254Z,76.03
2022-08-31T14:11:29.097Z,73.03
2022-08-31T14:14:05.880Z,80.37
2022-08-31T14:16:36.247Z,80.07
2022-08-31T14:19:05.079Z,79.50
2022-08-31T14:21:37.286Z,79.80
2022-08-31T14:24:07.821Z,84.73
2022-08-31T14:26:37.425Z,79.37
2022-08-31T14:29:10.220Z,84.60
2022-08-31T14:31:44.056Z,89.93
2022-08-31T14:34:22.587Z,84.47
2022-08-31T14:36:55.562Z,92.57
2022-08-31T14:39:26.736Z,87.90
2022-08-31T14:41:56.808Z,87.90
2022-08-31T14:44:27.790Z,90.20
2022-08-31T14:46:55.973Z,87.93
2022-08-31T14:49:24.856Z,98.17
2022-08-31T14:51:55.171Z,95.40
2022-08-31T14:54:24.822Z,99.90
2022-08-31T14:56:54.501Z,102.70
2022-08-31T14:59:22.744Z,112.20
2022-08-31T15:01:51.056Z,108.40
2022-08-31T15:04:21.692Z,111.90
2022-08-31T15:06:55.088Z,104.20
2022-08-31T15:09:24.909Z,104.90
2022-08-31T15:11:52.996Z,99.80
2022-08-31T15:14:22.416Z,114.83
2022-08-31T15:16:51.335Z,116.60
2022-08-31T15:19:19.494Z,114.63
2022-08-31T15:21:52.752Z,111.67
2022-08-31T15:24:28.539Z,112.30
2022-08-31T15:26:59.974Z,111.63
2022-08-31T15:29:30.418Z,114.53
2022-08-31T15:31:59.892Z,113.00
2022-08-31T15:34:31.076Z,108.40
2022-08-31T15:37:02.214Z,110.70
2022-08-31T15:39:35.617Z,115.77
2022-08-31T15:42:04.964Z,116.57
2022-08-31T15:44:33.554Z,117.47
2022-08-31T15:47:21.197Z,121.67
2022-08-31T15:49:51.258Z,112.70
2022-08-31T15:52:20.398Z,113.63
2022-08-31T15:54:50.431Z,121.43
2022-08-31T15:57:18.965Z,113.93
2022-08-31T15:59:47.218Z,122.53
2022-08-31T16:02:20.223Z,128.23
2022-08-31T16:04:51.228Z,124.50
2022-08-31T16:07:22.608Z,124.83
2022-08-31T16:09:52.162Z,131.13
2022-08-31T16:12:22.379Z,121.07
2022-08-31T16:14:51.702Z,127.70
2022-08-31T16:17:20.181Z,127.43
2022-08-31T16:19:48.351Z,125.67
2022-08-31T16:22:16.931Z,129.30
2022-08-31T16:24:49.913Z,131.27
2022-08-31T16:27:20.812Z,131.50
2022-08-31T16:29:50.720Z,129.63
2022-08-31T16:32:19.197Z,137.43
2022-08-31T16:34:47.285Z,134.23
2022-08-31T16:37:15.375Z,142.07
2022-08-31T16:39:46.922Z,135.83
2022-08-31T16:42:15.710Z,136.67
2022-08-31T16:44:46.970Z,137.93
2022-08-31T16:47:20.111Z,137.67
2022-08-31T16:49:47.728Z,137.17
2022-08-31T16:52:27.459Z,146.30
2022-08-31T16:54:57.017Z,142.03
2022-08-31T16:57:27.489Z,138.50
2022-08-31T17:00:03.005Z,136.30
2022-08-31T17:02:33.255Z,140.87
2022-08-31T17:05:04.723Z,136.90
2022-08-31T17:07:32.996Z,132.93
2022-08-31T17:10:03.987Z,131.57
2022-08-31T17:12:32.730Z,146.23
2022-08-31T17:15:03.650Z,140.00
2022-08-31T17:17:33.132Z,140.27
2022-08-31T17:20:01.331Z,137.83
2022-08-31T17:22:33.641Z,145.53
2022-08-31T17:25:04.690Z,141.57
2022-08-31T17:27:34.370Z,133.53
2022-08-31T17:30:07.317Z,146.93
2022-08-31T17:32:44.957Z,132.90
2022-08-31T17:35:18.194Z,132.60
2022-08-31T17:37:47.791Z,138.90
2022-08-31T17:40:16.878Z,132.37
2022-08-31T17:42:45.523Z,128.40
2022-08-31T17:45:15.580Z,136.83
2022-08-31T17:47:43.652Z,130.53
2022-08-31T17:50:13.935Z,127.97
2022-08-31T17:52:42.167Z,126.97
2022-08-31T17:55:10.592Z,122.57
2022-08-31T17:57:40.659Z,127.00
2022-08-31T18:00:10.338Z,128.73
2022-08-31T18:02:39.824Z,121.77
2022-08-31T18:05:12.183Z,130.57
2022-08-31T18:07:40.843Z,120.97
2022-08-31T18:10:10.857Z,130.77
2022-08-31T18:12:41.222Z,120.30
2022-08-31T18:15:10.932Z,119.30
2022-08-31T18:17:40.790Z,122.33
2022-08-31T18:20:10.737Z,123.67
2022-08-31T18:22:39.888Z,121.33
2022-08-31T18:25:08.607Z,119.77
2022-08-31T18:27:36.783Z,124.53
2022-08-31T18:30:05.957Z,126.47
2022-08-31T18:32:36.107Z,124.07
2022-08-31T18:35:14.218Z,115.90
2022-08-31T18:37:42.724Z,122.67
2022-08-31T18:40:29.490Z,114.93
2022-08-31T18:43:15.036Z,110.70
2022-08-31T18:45:43.195Z,108.57
2022-08-31T18:48:24.916Z,107.50
2022-08-31T18:50:59.121Z,103.67
2022-08-31T18:53:30.331Z,111.43
2022-08-31T18:56:00.302Z,106.83
2022-08-31T18:58:29.950Z,111.37
2022-08-31T19:00:58.856Z,112.03
2022-08-31T19:03:27.762Z,112.30
2022-08-31T19:05:57.952Z,110.57
2022-08-31T19:08:26.995Z,113.93
2022-08-31T19:10:57.960Z,108.53
2022-08-31T19:13:29.891Z,116.87
2022-08-31T19:16:01.569Z,106.70
2022-08-31T19:18:31.930Z,108.00
2022-08-31T19:21:11.699Z,105.67
2022-08-31T19:23:39.828Z,100.00
2022-08-31T19:26:08.109Z,110.43
2022-08-31T19:28:36.220Z,102.53
2022-08-31T19:31:06.422Z,103.70
2022-08-31T19:33:34.500Z,93.17
2022-08-31T19:36:04.801Z,104.83
2022-08-31T19:38:32.977Z,100.13
2022-08-31T19:41:01.472Z,111.80
2022-08-31T19:43:53.689Z,102.03
2022-08-31T19:46:21.208Z,101.93
2022-08-31T19:48:50.642Z,100.87
2022-08-31T19:51:22.494Z,106.80
2022-08-31T19:53:51.698Z,100.43
2022-08-31T19:56:22.134Z,103.50
2022-08-31T19:58:52.637Z,97.17
2022-08-31T20:01:28.260Z,93.63
2022-08-31T20:03:57.159Z,94.80
2022-08-31T20:06:26.727Z,96.83
2022-08-31T20:08:55.475Z,93.57
2022-08-31T20:11:26.532Z,98.33
2022-08-31T20:13:55.358Z,99.33
2022-08-31T20:16:28.539Z,94.77
2022-08-31T20:19:04.042Z,95.30
2022-08-31T20:21:35.255Z,94.53
2022-08-31T20:24:07.500Z,98.13
2022-08-31T20:26:47.472Z,98.63
2022-08-31T20:29:21.390Z,95.97
2022-08-31T20:31:51.385Z,95.40
2022-08-31T20:34:21.860Z,98.10
2022-08-31T20:36:58.469Z,102.50
2022-08-31T20:39:30.821Z,101.37
2022-08-31T20:42:00.551Z,105.93
2022-08-31T20:44:30.986Z,104.00
2022-08-31T20:47:18.006Z,109.23
2022-08-31T20:49:47.950Z,109.03
2022-08-31T20:52:17.867Z,104.17
2022-08-31T20:54:51.990Z,110.13
2022-08-31T20:57:27.399Z,109.30
2022-08-31T20:59:58.349Z,109.00
2022-08-31T21:02:27.186Z,115.47
2022-08-31T21:04:56.985Z,114.37
2022-08-31T21:07:27.174Z,109.13
2022-08-31T21:09:55.449Z,109.47
2022-08-31T21:12:23.930Z,112.87
2022-08-31T21:14:55.451Z,107.47
2022-08-31T21:17:25.182Z,117.10
2022-08-31T21:19:57.839Z,114.10
2022-08-31T21:22:27.721Z,117.70
2022-08-31T21:24:59.753Z,132.77
2022-08-31T21:27:29.561Z,132.07
2022-08-31T21:29:57.661Z,133.37
2022-08-31T21:32:25.718Z,138.87
2022-08-31T21:34:56.717Z,136.20
2022-08-31T21:37:24.861Z,146.17
2022-08-31T21:39:57.784Z,142.93
2022-08-31T21:42:26.164Z,144.07
2022-08-31T21:44:54.335Z,147.03
2022-08-31T21:47:22.356Z,152.73
2022-08-31T21:49:53.398Z,146.00
2022-08-31T21:52:21.568Z,150.53
2022-08-31T21:54:49.551Z,150.37
2022-08-31T21:57:19.017Z,142.90
2022-08-31T21:59:47.187Z,145.70
2022-08-31T22:02:15.788Z,144.00
2022-08-31T22:04:45.079Z,147.43
2022-08-31T22:07:14.745Z,160.83
2022-08-31T22:09:43.225Z,153.77
2022-08-31T22:12:15.024Z,149.07
2022-08-31T22:14:45.039Z,149.87
2022-08-31T22:17:14.726Z,139.00
2022-08-31T22:19:43.000Z,149.47
2022-08-31T22:22:13.207Z,161.00
2022-08-31T22:24:42.698Z,152.47
2022-08-31T22:27:11.936Z,159.07
2022-08-31T22:29:41.487Z,152.37
2022-08-31T22:32:12.984Z,153.07
2022-08-31T22:34:42.330Z,158.63
2022-08-31T22:37:11.709Z,158.43
2022-08-31T22:39:42.347Z,153.07
2022-08-31T22:42:11.790Z,152.73
2022-08-31T22:44:40.576Z,159.43
2022-08-31T22:47:10.150Z,158.03
2022-08-31T22:49:38.269Z,165.37
2022-08-31T22:52:07.311Z,158.27
2022-08-31T22:54:36.581Z,156.13
2022-08-31T22:57:05.103Z,149.10
2022-08-31T22:59:33.126Z,149.20
2022-08-31T23:02:03.253Z,151.17
2022-08-31T23:04:34.505Z,143.70
2022-08-31T23:07:03.660Z,146.33
2022-08-31T23:09:33.686Z,146.73
2022-08-31T23:12:03.828Z,142.77
2022-08-31T23:14:33.119Z,143.63
2022-08-31T23:17:02.712Z,145.10
2022-08-31T23:19:36.748Z,149.30
2022-08-31T23:22:07.590Z,139.43
2022-08-31T23:24:38.080Z,137.23
2022-08-31T23:27:10.292Z,135.10
2022-08-31T23:29:41.123Z,136.20
2022-08-31T23:32:13.388Z,132.27
2022-08-31T23:34:43.042Z,134.83
2022-08-31T23:37:12.005Z,124.37
2022-08-31T23:39:43.328Z,130.87
2022-08-31T23:42:12.367Z,131.47
2022-08-31T23:44:41.779Z,129.40
2022-08-31T23:47:10.978Z,133.57
2022-08-31T23:49:40.397Z,124.43
2022-08-31T23:52:11.838Z,131.13
2022-08-31T23:54:41.204Z,121.00
2022-08-31T23:57:29.254Z,131.30
